Latest Weather Observations for Maroochydore

IDQ60801

Issued at 1:02 pm EST Tuesday 3 March 2015 (issued every 30 minutes, with the page automatically refreshed every 10 minutes)

About weather observations | Map of weather stations | Latest weather observations for QLD | Other Formats
Station Details ID: 040861 Name: SUNSHINE COAST AIRPORT Lat: -26.60 Lon: 153.09 Height: 3.3 m
Data from the previous 72 hours. | See also: Recent months at Maroochydore
Date/Time
EST
Temp
°C
App
Temp
°C
Dew
Point
Rel
Hum
%
Delta-T
°C
Wind Press
QNH
hPa
Press
MSL
hPa
Rain
since 9 am
mm
Dir
 
Spd
km/h
Gust
km/h
Spd
kts
Gust
kts
03/01:00pm 29.0 27.3 17.2 49 7.4 ESE 22 28 12 15 1014.0 - 0.0
03/12:30pm 29.3 28.2 18.7 52 6.8 SE 22 30 12 16 1014.4 - 0.0
03/12:00pm 28.7 27.2 17.6 51 7.0 SE 22 30 12 16 1014.9 1014.9 0.0
03/11:30am 29.2 28.4 19.2 54 6.5 SE 22 30 12 16 1015.1 - 0.0
03/11:00am 28.8 27.7 18.6 54 6.6 SE 22 24 12 13 1015.4 - 0.0
03/10:30am 29.1 28.9 20.5 59 5.7 SSE 22 32 12 17 1015.5 - 0.0
03/10:00am 28.8 28.2 19.7 58 5.9 SSE 22 30 12 16 1015.7 - 0.0
03/09:00am 27.9 28.2 20.7 65 4.8 SSE 20 26 11 14 1015.4 1015.4 0.0
03/08:00am 25.7 26.3 20.3 72 3.5 S 17 24 9 13 1015.0 - 0.0
03/07:30am 24.4 25.1 20.5 79 2.5 S 17 22 9 12 1014.8 - 0.0
03/07:00am 23.3 23.9 20.2 83 2.0 S 17 20 9 11 1014.5 - 0.0
03/06:30am 22.2 24.4 20.3 89 1.2 SW 9 15 5 8 1014.4 - 0.0
03/05:30am 22.2 23.5 20.1 88 1.4 SSW 13 15 7 8 1014.1 - 0.0
03/05:00am 22.7 24.1 20.4 87 1.5 SSW 13 19 7 10 1013.8 - 0.0
03/04:30am 22.9 23.7 20.6 87 1.5 SSW 17 26 9 14 1013.6 - 0.0
03/04:00am 22.9 24.2 20.8 88 1.4 S 15 20 8 11 1013.3 - 0.0
03/03:30am 22.8 23.9 20.5 87 1.5 S 15 20 8 11 1013.2 - 0.0
03/03:00am 23.0 23.8 20.7 87 1.5 S 17 20 9 11 1013.2 1013.2 0.0
03/02:30am 23.1 23.9 20.6 86 1.6 S 17 22 9 12 1013.1 - 0.0
03/02:00am 23.4 23.8 20.7 85 1.8 S 19 24 10 13 1013.3 - 0.0
03/01:30am 23.6 24.5 20.9 85 1.8 S 17 22 9 12 1013.6 - 0.0
03/01:00am 23.9 24.7 20.6 82 2.2 S 17 20 9 11 1014.0 - 0.0
03/12:30am 25.2 25.1 20.7 76 2.9 SSE 22 33 12 18 1014.2 - 0.0
 
Date/Time
EST
Temp
°C
App
Temp
°C
Dew
Point
Rel
Hum
%
Delta-T
°C
Wind Press
QNH
hPa
Press
MSL
hPa
Rain
since 9 am
mm
Dir
 
Spd
km/h
Gust
km/h
Spd
kts
Gust
kts
02/11:30pm 25.3 25.0 20.3 74 3.3 SSE 22 32 12 17 1014.5 - 0.0
02/11:00pm 25.2 25.2 20.2 74 3.3 SSE 20 28 11 15 1014.8 - 0.0
02/10:30pm 25.6 25.0 20.4 73 3.4 SE 24 33 13 18 1014.7 - 0.0
02/10:00pm 25.5 25.4 20.7 75 3.1 SSE 22 32 12 17 1014.7 - 0.0
02/09:30pm 25.4 24.8 20.4 74 3.3 SSE 24 30 13 16 1014.7 - 0.0
02/09:00pm 25.5 24.9 20.5 74 3.3 SSE 24 32 13 17 1014.7 1014.7 0.0
02/08:30pm 25.7 24.2 20.3 72 3.5 SSE 28 37 15 20 1014.3 - 0.0
02/08:00pm 25.4 24.7 21.1 77 2.8 SSE 26 37 14 20 1014.1 - 0.0
02/07:30pm 25.2 25.8 21.1 78 2.7 SSE 19 24 10 13 1013.7 - 0.0
02/07:00pm 25.0 24.0 20.5 76 2.9 SSE 26 37 14 20 1013.2 - 0.0
02/06:30pm 25.5 23.9 20.7 75 3.1 SSE 30 37 16 20 1012.8 - 0.0
02/06:00pm 25.8 24.5 20.6 73 3.4 SSE 28 37 15 20 1012.6 1012.6 0.0
02/05:30pm 26.4 24.5 20.9 72 3.6 SE 32 39 17 21 1012.1 - 0.0
02/05:00pm 26.7 26.8 21.9 75 3.2 SE 24 35 13 19 1011.8 - 0.0
02/04:30pm 27.0 27.0 21.7 73 3.5 SE 24 33 13 18 1011.6 - 0.0
02/04:00pm 28.0 26.8 21.5 67 4.3 SE 30 41 16 22 1011.3 - 0.0
02/03:30pm 28.1 26.4 21.4 67 4.5 SE 32 46 17 25 1011.1 - 0.0
02/03:00pm 28.3 26.2 21.6 67 4.5 SE 35 44 19 24 1011.2 1011.2 0.0
02/02:30pm 28.8 27.3 22.1 67 4.5 SE 33 43 18 23 1011.3 - 0.0
02/02:00pm 28.8 26.8 21.8 66 4.7 SE 35 44 19 24 1011.6 - 0.0
02/01:30pm 28.9 27.7 22.2 67 4.5 SE 32 43 17 23 1011.7 - 0.0
02/01:00pm 29.0 27.5 21.7 64 4.9 SE 32 41 17 22 1012.0 - 0.0
02/12:30pm 29.5 28.4 22.5 66 4.8 SE 32 46 17 25 1012.0 - 0.0
02/12:00pm 29.4 28.3 22.4 66 4.8 SE 32 41 17 22 1012.1 1012.1 0.0
02/11:30am 30.4 30.7 23.6 67 4.7 SE 28 37 15 20 1012.3 - 0.0
02/11:00am 29.7 30.0 22.2 64 5.1 SE 24 30 13 16 1012.5 - 0.0
02/10:30am 29.5 31.0 23.0 68 4.4 SE 20 26 11 14 1012.5 - 0.0
02/10:00am 28.7 29.2 21.2 64 5.0 ESE 20 24 11 13 1012.5 - 0.0
02/09:30am 29.7 32.4 22.2 64 5.1 S 11 17 6 9 1012.7 - 0.0
02/09:00am 28.6 30.5 21.4 65 4.8 SSW 13 19 7 10 1012.4 1012.4 0.0
02/08:30am 27.6 30.0 21.6 70 4.0 SSW 11 15 6 8 1012.4 - 0.0
02/08:00am 26.3 28.8 21.7 76 3.1 SW 11 15 6 8 1012.3 - 0.0
02/07:30am 25.0 26.8 21.1 79 2.6 SSW 13 15 7 8 1012.1 - 0.0
02/07:00am 23.4 25.8 21.5 89 1.3 SSW 11 15 6 8 1012.0 - 0.0
02/06:30am 22.3 25.2 21.1 93 0.8 SSW 7 9 4 5 1011.7 - 0.0
02/06:00am 21.5 24.3 20.5 94 0.6 SW 6 7 3 4 1011.1 1011.1 0.0
02/05:30am 21.2 23.8 20.0 93 0.8 WSW 6 7 3 4 1010.7 - 0.0
02/05:00am 21.0 24.1 19.6 92 0.9 WSW 2 6 1 3 1010.2 - 0.0
02/04:30am 21.7 24.5 20.5 93 0.8 SW 6 7 3 4 1009.9 - 0.0
02/04:00am 21.5 23.9 20.1 92 0.9 W 7 9 4 5 1009.6 - 0.0
02/03:30am 21.9 24.6 20.7 93 0.8 WNW 7 9 4 5 1009.5 - 0.0
02/03:00am 21.9 24.2 20.7 93 0.8 W 9 9 5 5 1009.4 1009.4 0.0
02/02:30am 21.9 24.6 20.7 93 0.8 W 7 9 4 5 1009.6 - 0.0
02/02:00am 21.7 25.2 20.3 92 0.9 W 2 11 1 6 1009.9 - 0.0
02/01:30am 21.9 26.0 20.7 93 0.8 CALM 0 0 0 0 1010.2 - 0.0
02/01:00am 21.8 25.7 20.3 91 1.0 CALM 0 0 0 0 1010.0 - 0.0
02/12:30am 21.7 24.8 20.2 91 1.0 W 4 6 2 3 1009.9 - 0.0
02/12:00am 21.9 24.1 20.5 92 0.9 WNW 9 11 5 6 1009.8 1009.8 0.0
 
Date/Time
EST
Temp
°C
App
Temp
°C
Dew
Point
Rel
Hum
%
Delta-T
°C
Wind Press
QNH
hPa
Press
MSL
hPa
Rain
since 9 am
mm
Dir
 
Spd
km/h
Gust
km/h
Spd
kts
Gust
kts
01/11:30pm 22.2 24.5 20.7 91 1.0 W 9 11 5 6 1009.9 - 0.0
01/11:00pm 22.3 24.5 20.4 89 1.2 WNW 9 11 5 6 1009.7 - 0.0
01/10:30pm 22.9 25.7 20.4 86 1.6 W 6 6 3 3 1010.3 - 0.0
01/10:00pm 23.5 26.5 20.8 85 1.8 W 6 9 3 5 1010.5 - 0.0
01/09:30pm 23.9 26.2 20.6 82 2.2 WNW 9 9 5 5 1010.5 - 0.0
01/09:00pm 24.9 26.3 21.0 79 2.6 NNE 15 19 8 10 1009.9 1009.9 0.0
01/08:30pm 24.4 26.0 20.7 80 2.4 NNE 13 15 7 8 1010.0 - 0.0
01/08:00pm 24.8 26.4 20.7 78 2.7 NNE 13 17 7 9 1009.9 - 0.0
01/07:30pm 25.0 26.2 20.7 77 2.8 NNE 15 19 8 10 1009.4 - 0.0
01/07:00pm 24.9 26.0 20.4 76 2.9 NNE 15 17 8 9 1009.1 - 0.0
01/06:30pm 24.9 26.3 20.4 76 2.9 NNE 13 20 7 11 1008.7 - 0.0
01/06:00pm 25.5 26.6 20.5 74 3.3 NNE 15 20 8 11 1008.4 1008.4 0.0
01/05:30pm 26.4 27.5 20.5 70 3.9 NNE 15 20 8 11 1008.2 - 0.0
01/05:00pm 27.2 27.9 20.5 67 4.4 NE 17 20 9 11 1008.3 - 0.0
01/04:30pm 27.8 28.7 20.9 66 4.6 NE 17 22 9 12 1008.1 - 0.0
01/04:00pm 28.1 29.0 20.9 65 4.8 ENE 17 22 9 12 1008.1 - 0.0
01/03:30pm 28.2 28.5 20.5 63 5.1 ENE 19 22 10 12 1008.2 - 0.0
01/03:00pm 28.7 29.3 21.0 63 5.1 ENE 19 24 10 13 1008.3 1008.3 0.0
01/02:30pm 29.0 29.8 20.7 61 5.5 ENE 17 22 9 12 1008.7 - 0.0
01/02:00pm 29.2 30.0 20.6 59 5.7 ENE 17 24 9 13 1008.9 - 0.0
01/01:30pm 29.5 30.2 21.2 61 5.5 ENE 19 24 10 13 1009.2 - 0.0
01/01:00pm 30.0 31.3 21.7 61 5.6 ENE 17 24 9 13 1009.4 - 0.0
01/12:30pm 29.0 29.7 20.4 59 5.7 ENE 17 20 9 11 1009.7 - 0.0
01/12:00pm 29.6 31.0 21.8 63 5.3 ENE 17 20 9 11 1009.8 1009.8 0.0
01/11:30am 28.7 29.7 20.2 60 5.6 ENE 15 19 8 10 1010.3 - 0.0
01/11:00am 28.8 30.7 21.3 64 5.0 E 13 17 7 9 1010.7 - 0.0
01/10:30am 28.8 30.7 22.1 67 4.5 E 15 20 8 11 1011.1 - 0.0
01/10:00am 28.3 30.3 21.6 67 4.5 E 13 15 7 8 1011.1 - 0.0
01/09:30am 28.0 30.4 21.5 67 4.3 ESE 11 17 6 9 1011.1 - 0.0
01/09:00am 27.7 30.6 21.7 70 4.0 ESE 9 15 5 8 1011.1 1011.1 0.0
01/08:30am 27.2 29.6 20.8 68 4.2 ESE 9 15 5 8 1010.9 - 0.0
01/08:00am 26.0 28.4 20.8 73 3.4 SSW 9 11 5 6 1010.7 - 0.0
01/07:30am 24.5 27.3 21.6 84 1.9 SW 9 11 5 6 1010.5 - 0.0
01/07:00am 22.8 25.7 21.1 90 1.1 WSW 7 9 4 5 1010.4 - 0.0
01/06:30am 21.8 25.9 20.8 94 0.6 CALM 0 0 0 0 1010.2 - 0.0
01/06:00am 20.9 24.5 19.7 93 0.8 CALM 0 0 0 0 1010.0 1010.0 0.0
01/05:30am 21.2 24.9 20.0 93 0.8 CALM 0 0 0 0 1009.8 - 0.0
01/05:00am 21.5 25.5 20.5 94 0.6 CALM 0 0 0 0 1009.7 - 0.0
01/04:30am 21.2 23.9 20.2 94 0.6 WSW 6 7 3 4 1009.6 - 0.0
01/04:00am 21.0 23.5 19.8 93 0.8 W 6 7 3 4 1009.4 - 0.0
01/03:30am 21.2 24.3 20.2 94 0.6 WSW 4 11 2 6 1009.5 - 0.0
01/03:00am 20.9 24.5 19.7 93 0.8 CALM 0 0 0 0 1009.3 1009.3 0.0
01/02:30am 21.2 23.7 19.8 92 0.9 WSW 6 7 3 4 1009.4 - 0.0
01/02:00am 21.4 23.9 20.2 93 0.8 WSW 7 9 4 5 1009.7 - 0.0
01/01:30am 21.4 23.8 20.0 92 0.9 W 7 9 4 5 1009.9 - 0.0
01/01:00am 21.7 23.9 20.3 92 0.9 W 9 11 5 6 1010.3 - 0.0
01/12:30am 21.7 25.3 19.8 89 1.2 CALM 0 0 0 0 1010.5 - 0.0
01/12:00am 22.5 26.4 20.4 88 1.4 CALM 0 0 0 0 1010.8 1010.8 0.0
 
Date/Time
EST
Temp
°C
App
Temp
°C
Dew
Point
Rel
Hum
%
Delta-T
°C
Wind Press
QNH
hPa
Press
MSL
hPa
Rain
since 9 am
mm
Dir
 
Spd
km/h
Gust
km/h
Spd
kts
Gust
kts
28/11:30pm 22.8 26.8 20.5 87 1.5 CALM 0 0 0 0 1011.1 - 0.0
28/11:00pm 23.5 26.3 20.4 83 2.0 SW 6 11 3 6 1011.3 - 0.0
28/10:30pm 24.2 26.3 20.1 78 2.7 NE 9 11 5 6 1011.3 - 0.0
28/10:00pm 24.6 26.3 20.1 76 2.9 NE 11 15 6 8 1011.3 - 0.0
28/09:30pm 25.0 26.9 20.5 76 2.9 NE 11 15 6 8 1011.2 - 0.0
28/09:00pm 24.9 25.9 20.2 75 3.1 ENE 15 17 8 9 1011.1 1011.1 0.0
28/08:30pm 25.2 26.0 20.7 76 2.9 ENE 17 22 9 12 1010.9 - 0.0
28/08:00pm 25.1 25.9 20.6 76 2.9 ENE 17 20 9 11 1010.7 - 0.0
28/07:30pm 25.6 26.0 20.6 74 3.3 ENE 19 22 10 12 1010.6 - 0.0
28/07:00pm 25.5 26.7 20.7 75 3.1 ENE 15 19 8 10 1010.2 - 0.0
28/06:30pm 25.6 26.9 20.8 75 3.2 ENE 15 19 8 10 1009.9 - 0.0
28/06:00pm 25.9 27.0 20.5 72 3.5 ENE 15 19 8 10 1009.6 1009.6 0.0
28/05:30pm 26.7 27.7 21.0 71 3.8 ENE 17 20 9 11 1009.3 - 0.0
28/05:00pm 26.4 27.0 20.3 69 4.0 ENE 17 20 9 11 1009.2 - 0.0
28/04:30pm 27.5 28.1 20.3 65 4.7 ENE 17 22 9 12 1009.1 - 0.0
28/04:00pm 27.9 28.9 21.0 66 4.6 E 17 24 9 13 1008.8 - 0.0
28/03:30pm 27.7 28.0 20.5 65 4.7 E 19 24 10 13 1008.8 - 0.0
28/03:00pm 27.8 28.2 20.6 65 4.8 ENE 19 24 10 13 1008.9 1008.9 0.0
28/02:30pm 29.3 30.4 22.0 64 4.9 ENE 19 22 10 12 1009.1 - 0.0
28/02:00pm 29.3 30.2 21.5 63 5.2 ENE 19 24 10 13 1009.4 - 0.0
28/01:30pm 28.0 28.4 20.6 64 4.9 E 19 24 10 13 1009.6 - 0.0

Other Formats:

Comma delimited format used in spreadsheet applications
http://www.bom.gov.au/fwo/IDQ60801/IDQ60801.94569.axf

JavaScript Object Notation format (JSON) in row-major order
http://www.bom.gov.au/fwo/IDQ60801/IDQ60801.94569.json